sensor_id;sensor_type;location;lat;lon;timestamp;pressure;altitude;pressure_sealevel;temperature;humidity
63115;BME280;49208;50.874;6.466;2024-01-30T07:02:09;101464.88;;;6.44;100.00
63115;BME280;49208;50.874;6.466;2024-01-30T07:04:35;101460.47;;;6.41;100.00
63115;BME280;49208;50.874;6.466;2024-01-30T07:07:02;101463.09;;;6.40;100.00
63115;BME280;49208;50.874;6.466;2024-01-30T07:09:28;101459.59;;;6.39;100.00
63115;BME280;49208;50.874;6.466;2024-01-30T07:11:54;101467.53;;;6.39;100.00
63115;BME280;49208;50.874;6.466;2024-01-30T07:14:20;101464.88;;;6.36;100.00
63115;BME280;49208;50.874;6.466;2024-01-30T07:16:46;101465.75;;;6.34;100.00
63115;BME280;49208;50.874;6.466;2024-01-30T07:19:11;101460.47;;;6.35;100.00
63115;BME280;49208;50.874;6.466;2024-01-30T07:21:36;101466.66;;;6.31;100.00
63115;BME280;49208;50.874;6.466;2024-01-30T07:24:02;101467.53;;;6.30;100.00
63115;BME280;49208;50.874;6.466;2024-01-30T07:26:27;101462.22;;;6.35;100.00
63115;BME280;49208;50.874;6.466;2024-01-30T07:28:52;101461.34;;;6.37;100.00
63115;BME280;49208;50.874;6.466;2024-01-30T07:31:18;101475.47;;;6.39;100.00
63115;BME280;49208;50.874;6.466;2024-01-30T07:33:45;101485.13;;;6.39;100.00
63115;BME280;49208;50.874;6.466;2024-01-30T07:36:11;101487.78;;;6.42;100.00
63115;BME280;49208;50.874;6.466;2024-01-30T07:38:36;101492.19;;;6.44;100.00
63115;BME280;49208;50.874;6.466;2024-01-30T07:41:01;101488.66;;;6.45;100.00
63115;BME280;49208;50.874;6.466;2024-01-30T07:43:27;101494.81;;;6.44;100.00
63115;BME280;49208;50.874;6.466;2024-01-30T07:45:52;101489.53;;;6.49;100.00
63115;BME280;49208;50.874;6.466;2024-01-30T07:48:17;101493.06;;;6.48;100.00
63115;BME280;49208;50.874;6.466;2024-01-30T07:50:43;101493.94;;;6.52;100.00
63115;BME280;49208;50.874;6.466;2024-01-30T07:53:08;101501.88;;;6.52;100.00
63115;BME280;49208;50.874;6.466;2024-01-30T07:55:33;101497.47;;;6.52;100.00
63115;BME280;49208;50.874;6.466;2024-01-30T07:57:59;101501.88;;;6.52;100.00
63115;BME280;49208;50.874;6.466;2024-01-30T08:00:25;101503.63;;;6.54;100.00
63115;BME280;49208;50.874;6.466;2024-01-30T08:02:51;101506.25;;;6.60;100.00
63115;BME280;49208;50.874;6.466;2024-01-30T08:05:19;101506.25;;;6.62;100.00
63115;BME280;49208;50.874;6.466;2024-01-30T08:07:47;101502.72;;;6.63;100.00
63115;BME280;49208;50.874;6.466;2024-01-30T08:10:12;101507.13;;;6.59;100.00
63115;BME280;49208;50.874;6.466;2024-01-30T08:12:41;101519.47;;;6.57;100.00
63115;BME280;49208;50.874;6.466;2024-01-30T08:15:07;101514.22;;;6.54;100.00
63115;BME280;49208;50.874;6.466;2024-01-30T08:17:32;101517.72;;;6.58;100.00
63115;BME280;49208;50.874;6.466;2024-01-30T08:19:58;101513.31;;;6.61;100.00
63115;BME280;49208;50.874;6.466;2024-01-30T08:22:23;101519.47;;;6.65;100.00
63115;BME280;49208;50.874;6.466;2024-01-30T08:24:49;101516.81;;;6.68;100.00
63115;BME280;49208;50.874;6.466;2024-01-30T08:27:14;101518.56;;;6.72;100.00
63115;BME280;49208;50.874;6.466;2024-01-30T08:29:39;101518.56;;;6.77;100.00
63115;BME280;49208;50.874;6.466;2024-01-30T08:32:05;101509.72;;;6.84;100.00
63115;BME280;49208;50.874;6.466;2024-01-30T08:34:31;101527.34;;;6.93;100.00
63115;BME280;49208;50.874;6.466;2024-01-30T08:36:57;101523.78;;;7.01;100.00
63115;BME280;49208;50.874;6.466;2024-01-30T08:39:22;101524.63;;;7.09;100.00
63115;BME280;49208;50.874;6.466;2024-01-30T08:41:47;101520.19;;;7.18;100.00
63115;BME280;49208;50.874;6.466;2024-01-30T08:44:13;101529.00;;;7.21;100.00
63115;BME280;49208;50.874;6.466;2024-01-30T08:46:38;101529.84;;;7.28;100.00
63115;BME280;49208;50.874;6.466;2024-01-30T08:49:04;101521.91;;;7.28;100.00
63115;BME280;49208;50.874;6.466;2024-01-30T08:51:30;101531.63;;;7.27;100.00
63115;BME280;49208;50.874;6.466;2024-01-30T08:53:56;101522.81;;;7.28;100.00
63115;BME280;49208;50.874;6.466;2024-01-30T08:56:21;101532.50;;;7.28;100.00
63115;BME280;49208;50.874;6.466;2024-01-30T08:58:47;101535.16;;;7.25;100.00
63115;BME280;49208;50.874;6.466;2024-01-30T09:01:12;101543.13;;;7.26;100.00
63115;BME280;49208;50.874;6.466;2024-01-30T09:03:37;101551.03;;;7.28;100.00
63115;BME280;49208;50.874;6.466;2024-01-30T09:06:11;101551.06;;;7.26;100.00
63115;BME280;49208;50.874;6.466;2024-01-30T09:08:37;101558.97;;;7.28;100.00
63115;BME280;49208;50.874;6.466;2024-01-30T09:11:12;101564.28;;;7.31;100.00
63115;BME280;49208;50.874;6.466;2024-01-30T09:13:38;101567.78;;;7.32;100.00
63115;BME280;49208;50.874;6.466;2024-01-30T09:16:04;101559.84;;;7.32;100.00
63115;BME280;49208;50.874;6.466;2024-01-30T09:18:29;101558.06;;;7.32;100.00
63115;BME280;49208;50.874;6.466;2024-01-30T09:20:54;101572.19;;;7.34;100.00
63115;BME280;49208;50.874;6.466;2024-01-30T09:23:20;101573.97;;;7.37;100.00
63115;BME280;49208;50.874;6.466;2024-01-30T09:25:45;101581.88;;;7.38;100.00
63115;BME280;49208;50.874;6.466;2024-01-30T09:28:11;101591.59;;;7.42;100.00
63115;BME280;49208;50.874;6.466;2024-01-30T09:30:36;101587.16;;;7.46;100.00
63115;BME280;49208;50.874;6.466;2024-01-30T09:33:02;101589.78;;;7.49;100.00
63115;BME280;49208;50.874;6.466;2024-01-30T09:35:27;101600.38;;;7.54;100.00
63115;BME280;49208;50.874;6.466;2024-01-30T09:37:53;101603.88;;;7.59;100.00
63115;BME280;49208;50.874;6.466;2024-01-30T09:40:18;101607.41;;;7.62;100.00
63115;BME280;49208;50.874;6.466;2024-01-30T09:42:47;101602.94;;;7.71;100.00
63115;BME280;49208;50.874;6.466;2024-01-30T09:45:15;101597.59;;;7.80;100.00
63115;BME280;49208;50.874;6.466;2024-01-30T09:47:43;101607.25;;;7.90;100.00
63115;BME280;49208;50.874;6.466;2024-01-30T09:50:13;101608.97;;;8.00;100.00
63115;BME280;49208;50.874;6.466;2024-01-30T09:52:39;101603.56;;;8.13;100.00
63115;BME280;49208;50.874;6.466;2024-01-30T09:55:06;101604.41;;;8.24;100.00
63115;BME280;49208;50.874;6.466;2024-01-30T09:57:31;101597.22;;;8.32;100.00
63115;BME280;49208;50.874;6.466;2024-01-30T09:59:57;101603.38;;;8.42;100.00
63115;BME280;49208;50.874;6.466;2024-01-30T10:02:23;101598.00;;;8.53;100.00
63115;BME280;49208;50.874;6.466;2024-01-30T10:04:52;101598.81;;;8.61;100.00
63115;BME280;49208;50.874;6.466;2024-01-30T10:07:18;101596.06;;;8.72;100.00
63115;BME280;49208;50.874;6.466;2024-01-30T10:09:44;101589.75;;;8.82;100.00
63115;BME280;49208;50.874;6.466;2024-01-30T10:12:09;101583.50;;;8.90;100.00
63115;BME280;49208;50.874;6.466;2024-01-30T10:14:39;101594.88;;;9.02;100.00
63115;BME280;49208;50.874;6.466;2024-01-30T10:17:05;101595.59;;;9.15;100.00
63115;BME280;49208;50.874;6.466;2024-01-30T10:19:31;101596.38;;;9.26;100.00
63115;BME280;49208;50.874;6.466;2024-01-30T10:21:56;101591.81;;;9.36;100.00
63115;BME280;49208;50.874;6.466;2024-01-30T10:24:25;101591.72;;;9.45;100.00
63115;BME280;49208;50.874;6.466;2024-01-30T10:26:51;101595.16;;;9.55;100.00
63115;BME280;49208;50.874;6.466;2024-01-30T10:29:17;101587.94;;;9.63;100.00
63115;BME280;49208;50.874;6.466;2024-01-30T10:31:42;101595.81;;;9.72;100.00
63115;BME280;49208;50.874;6.466;2024-01-30T10:34:07;101596.56;;;9.80;100.00
63115;BME280;49208;50.874;6.466;2024-01-30T10:36:36;101595.53;;;9.90;100.00
63115;BME280;49208;50.874;6.466;2024-01-30T10:39:06;101609.63;;;9.99;100.00
63115;BME280;49208;50.874;6.466;2024-01-30T10:41:43;101598.00;;;10.04;100.00
63115;BME280;49208;50.874;6.466;2024-01-30T10:44:10;101599.69;;;10.08;100.00
63115;BME280;49208;50.874;6.466;2024-01-30T10:46:37;101591.69;;;10.11;100.00
63115;BME280;49208;50.874;6.466;2024-01-30T10:49:04;101588.94;;;10.16;100.00
63115;BME280;49208;50.874;6.466;2024-01-30T10:51:31;101587.97;;;10.23;100.00
63115;BME280;49208;50.874;6.466;2024-01-30T10:53:57;101596.75;;;10.27;100.00
63115;BME280;49208;50.874;6.466;2024-01-30T10:56:23;101600.28;;;10.32;100.00
63115;BME280;49208;50.874;6.466;2024-01-30T10:58:53;101592.22;;;10.37;100.00
63115;BME280;49208;50.874;6.466;2024-01-30T11:01:19;101593.94;;;10.39;100.00
63115;BME280;49208;50.874;6.466;2024-01-30T11:03:51;101600.06;;;10.44;100.00
63115;BME280;49208;50.874;6.466;2024-01-30T11:06:18;101592.94;;;10.46;100.00
63115;BME280;49208;50.874;6.466;2024-01-30T11:09:03;101604.44;;;10.50;100.00
63115;BME280;49208;50.874;6.466;2024-01-30T11:11:29;101598.09;;;10.56;100.00
63115;BME280;49208;50.874;6.466;2024-01-30T11:13:54;101595.41;;;10.57;100.00
63115;BME280;49208;50.874;6.466;2024-01-30T11:16:20;101599.78;;;10.63;100.00
63115;BME280;49208;50.874;6.466;2024-01-30T11:18:50;101606.81;;;10.67;100.00
63115;BME280;49208;50.874;6.466;2024-01-30T11:21:17;101599.66;;;10.69;100.00
63115;BME280;49208;50.874;6.466;2024-01-30T11:23:42;101597.84;;;10.71;100.00
63115;BME280;49208;50.874;6.466;2024-01-30T11:26:10;101603.97;;;10.75;100.00
63115;BME280;49208;50.874;6.466;2024-01-30T11:28:38;101587.09;;;10.76;100.00
63115;BME280;49208;50.874;6.466;2024-01-30T11:31:05;101594.19;;;10.77;100.00
63115;BME280;49208;50.874;6.466;2024-01-30T11:33:30;101595.09;;;10.77;100.00
63115;BME280;49208;50.874;6.466;2024-01-30T11:35:58;101600.44;;;10.74;100.00
63115;BME280;49208;50.874;6.466;2024-01-30T11:38:26;101600.47;;;10.72;100.00
63115;BME280;49208;50.874;6.466;2024-01-30T11:40:53;101605.00;;;10.69;100.00
63115;BME280;49208;50.874;6.466;2024-01-30T11:43:18;101598.84;;;10.64;100.00
63115;BME280;49208;50.874;6.466;2024-01-30T11:45:44;101588.19;;;10.64;100.00
63115;BME280;49208;50.874;6.466;2024-01-30T11:48:11;101591.81;;;10.61;100.00
63115;BME280;49208;50.874;6.466;2024-01-30T11:50:38;101596.16;;;10.67;100.00
63115;BME280;49208;50.874;6.466;2024-01-30T11:53:04;101597.00;;;10.69;100.00
63115;BME280;49208;50.874;6.466;2024-01-30T11:55:30;101603.19;;;10.71;100.00
63115;BME280;49208;50.874;6.466;2024-01-30T11:57:56;101604.94;;;10.70;100.00
63115;BME280;49208;50.874;6.466;2024-01-30T12:00:22;101604.91;;;10.74;100.00
63115;BME280;49208;50.874;6.466;2024-01-30T12:02:55;101606.63;;;10.75;100.00
63115;BME280;49208;50.874;6.466;2024-01-30T12:05:25;101599.56;;;10.74;100.00
63115;BME280;49208;50.874;6.466;2024-01-30T12:07:51;101605.78;;;10.74;100.00
63115;BME280;49208;50.874;6.466;2024-01-30T12:10:16;101588.84;;;10.78;100.00
63115;BME280;49208;50.874;6.466;2024-01-30T12:12:47;101588.81;;;10.80;100.00
63115;BME280;49208;50.874;6.466;2024-01-30T12:15:14;101591.47;;;10.81;100.00
63115;BME280;49208;50.874;6.466;2024-01-30T12:17:40;101587.78;;;10.87;100.00
63115;BME280;49208;50.874;6.466;2024-01-30T12:20:10;101599.28;;;10.89;100.00
63115;BME280;49208;50.874;6.466;2024-01-30T12:22:37;101595.75;;;10.88;100.00
63115;BME280;49208;50.874;6.466;2024-01-30T12:25:13;101596.69;;;10.87;100.00
63115;BME280;49208;50.874;6.466;2024-01-30T12:27:42;101587.84;;;10.84;100.00
63115;BME280;49208;50.874;6.466;2024-01-30T12:30:12;101593.06;;;10.90;100.00
63115;BME280;49208;50.874;6.466;2024-01-30T12:32:42;101601.91;;;10.92;100.00
63115;BME280;49208;50.874;6.466;2024-01-30T12:35:12;101594.72;;;10.96;100.00
63115;BME280;49208;50.874;6.466;2024-01-30T12:37:38;101596.47;;;10.98;100.00
63115;BME280;49208;50.874;6.466;2024-01-30T12:40:04;101602.59;;;11.02;100.00
63115;BME280;49208;50.874;6.466;2024-01-30T12:42:31;101601.72;;;11.01;100.00
63115;BME280;49208;50.874;6.466;2024-01-30T12:44:58;101606.94;;;11.07;100.00
63115;BME280;49208;50.874;6.466;2024-01-30T12:47:26;101620.25;;;11.09;100.00
63115;BME280;49208;50.874;6.466;2024-01-30T12:49:51;101608.72;;;11.07;100.00
63115;BME280;49208;50.874;6.466;2024-01-30T12:52:19;101617.72;;;11.00;100.00
63115;BME280;49208;50.874;6.466;2024-01-30T12:54:45;101612.47;;;10.97;100.00
63115;BME280;49208;50.874;6.466;2024-01-30T12:57:11;101608.09;;;10.92;100.00
63115;BME280;49208;50.874;6.466;2024-01-30T12:59:36;101609.03;;;10.91;100.00
63115;BME280;49208;50.874;6.466;2024-01-30T13:02:02;101614.41;;;10.87;100.00
63115;BME280;49208;50.874;6.466;2024-01-30T13:04:28;101607.38;;;10.84;100.00
63115;BME280;49208;50.874;6.466;2024-01-30T13:06:54;101610.13;;;10.80;100.00
63115;BME280;49208;50.874;6.466;2024-01-30T13:09:20;101601.16;;;10.84;100.00
63115;BME280;49208;50.874;6.466;2024-01-30T13:11:45;101611.81;;;10.84;100.00
63115;BME280;49208;50.874;6.466;2024-01-30T13:14:11;101617.06;;;10.87;100.00
63115;BME280;49208;50.874;6.466;2024-01-30T13:16:36;101615.38;;;10.83;100.00
63115;BME280;49208;50.874;6.466;2024-01-30T13:19:02;101620.69;;;10.83;100.00
63115;BME280;49208;50.874;6.466;2024-01-30T13:21:29;101619.84;;;10.81;100.00
63115;BME280;49208;50.874;6.466;2024-01-30T13:23:55;101631.44;;;10.80;100.00
63115;BME280;49208;50.874;6.466;2024-01-30T13:26:21;101623.41;;;10.81;100.00
63115;BME280;49208;50.874;6.466;2024-01-30T13:28:47;101624.31;;;10.80;100.00
63115;BME280;49208;50.874;6.466;2024-01-30T13:31:13;101631.41;;;10.81;100.00
63115;BME280;49208;50.874;6.466;2024-01-30T13:33:39;101634.09;;;10.80;100.00
63115;BME280;49208;50.874;6.466;2024-01-30T13:36:06;101624.41;;;10.76;100.00
63115;BME280;49208;50.874;6.466;2024-01-30T13:38:31;101630.66;;;10.73;100.00
63115;BME280;49208;50.874;6.466;2024-01-30T13:40:57;101627.16;;;10.69;100.00
63115;BME280;49208;50.874;6.466;2024-01-30T13:43:22;101636.88;;;10.70;100.00
63115;BME280;49208;50.874;6.466;2024-01-30T13:45:47;101640.56;;;10.65;100.00
63115;BME280;49208;50.874;6.466;2024-01-30T13:48:13;101633.53;;;10.61;100.00
63115;BME280;49208;50.874;6.466;2024-01-30T13:50:38;101638.00;;;10.59;100.00
63115;BME280;49208;50.874;6.466;2024-01-30T13:53:04;101640.66;;;10.59;100.00
63115;BME280;49208;50.874;6.466;2024-01-30T13:55:29;101643.34;;;10.57;100.00
63115;BME280;49208;50.874;6.466;2024-01-30T13:57:55;101644.28;;;10.53;100.00
63115;BME280;49208;50.874;6.466;2024-01-30T14:00:21;101645.25;;;10.49;100.00
63115;BME280;49208;50.874;6.466;2024-01-30T14:02:48;101644.38;;;10.48;100.00
63115;BME280;49208;50.874;6.466;2024-01-30T14:05:13;101641.69;;;10.50;100.00
63115;BME280;49208;50.874;6.466;2024-01-30T14:07:40;101643.44;;;10.51;100.00
63115;BME280;49208;50.874;6.466;2024-01-30T14:10:06;101646.00;;;10.57;100.00
63115;BME280;49208;50.874;6.466;2024-01-30T14:12:31;101637.94;;;10.60;100.00
63115;BME280;49208;50.874;6.466;2024-01-30T14:14:58;101644.13;;;10.64;100.00
63115;BME280;49208;50.874;6.466;2024-01-30T14:17:23;101642.31;;;10.66;100.00
63115;BME280;49208;50.874;6.466;2024-01-30T14:19:48;101645.81;;;10.69;100.00
63115;BME280;49208;50.874;6.466;2024-01-30T14:22:14;101639.56;;;10.70;100.00
63115;BME280;49208;50.874;6.466;2024-01-30T14:24:39;101639.56;;;10.70;100.00
63115;BME280;49208;50.874;6.466;2024-01-30T14:27:05;101636.84;;;10.74;100.00
63115;BME280;49208;50.874;6.466;2024-01-30T14:29:30;101642.97;;;10.79;100.00
63115;BME280;49208;50.874;6.466;2024-01-30T14:31:55;101640.28;;;10.80;100.00
63115;BME280;49208;50.874;6.466;2024-01-30T14:34:23;101635.84;;;10.81;100.00
63115;BME280;49208;50.874;6.466;2024-01-30T14:36:48;101645.50;;;10.86;100.00
63115;BME280;49208;50.874;6.466;2024-01-30T14:39:14;101642.06;;;10.81;100.00
63115;BME280;49208;50.874;6.466;2024-01-30T14:41:39;101649.19;;;10.79;100.00
63115;BME280;49208;50.874;6.466;2024-01-30T14:44:05;101650.09;;;10.77;100.00
63115;BME280;49208;50.874;6.466;2024-01-30T14:46:30;101653.72;;;10.74;100.00
63115;BME280;49208;50.874;6.466;2024-01-30T14:48:56;101658.19;;;10.72;100.00
63115;BME280;49208;50.874;6.466;2024-01-30T14:51:22;101664.44;;;10.71;100.00
63115;BME280;49208;50.874;6.466;2024-01-30T14:53:48;101662.66;;;10.68;100.00
63115;BME280;49208;50.874;6.466;2024-01-30T14:56:13;101671.66;;;10.63;100.00
63115;BME280;49208;50.874;6.466;2024-01-30T14:58:39;101675.22;;;10.60;100.00
63115;BME280;49208;50.874;6.466;2024-01-30T15:01:04;101676.19;;;10.56;100.00
63115;BME280;49208;50.874;6.466;2024-01-30T15:03:30;101675.41;;;10.49;100.00
63115;BME280;49208;50.874;6.466;2024-01-30T15:05:56;101683.47;;;10.43;100.00
63115;BME280;49208;50.874;6.466;2024-01-30T15:08:21;101684.50;;;10.36;100.00
63115;BME280;49208;50.874;6.466;2024-01-30T15:10:47;101698.75;;;10.32;100.00
63115;BME280;49208;50.874;6.466;2024-01-30T15:13:12;101709.44;;;10.26;100.00
63115;BME280;49208;50.874;6.466;2024-01-30T15:15:38;101713.13;;;10.16;100.00
63115;BME280;49208;50.874;6.466;2024-01-30T15:18:03;101722.19;;;10.01;100.00
63115;BME280;49208;50.874;6.466;2024-01-30T15:20:29;101720.53;;;9.92;100.00
63115;BME280;49208;50.874;6.466;2024-01-30T15:22:56;101727.72;;;9.82;100.00
63115;BME280;49208;50.874;6.466;2024-01-30T15:25:22;101734.91;;;9.74;100.00
63115;BME280;49208;50.874;6.466;2024-01-30T15:27:47;101728.81;;;9.64;100.00
63115;BME280;49208;50.874;6.466;2024-01-30T15:30:13;101743.06;;;9.59;100.00
63115;BME280;49208;50.874;6.466;2024-01-30T15:32:38;101741.34;;;9.53;100.00
63115;BME280;49208;50.874;6.466;2024-01-30T15:35:04;101744.94;;;9.50;100.00
63115;BME280;49208;50.874;6.466;2024-01-30T15:37:31;101748.53;;;9.46;100.00
63115;BME280;49208;50.874;6.466;2024-01-30T15:39:57;101755.63;;;9.43;100.00
63115;BME280;49208;50.874;6.466;2024-01-30T15:42:22;101761.00;;;9.38;100.00
63115;BME280;49208;50.874;6.466;2024-01-30T15:44:48;101764.53;;;9.36;100.00
63115;BME280;49208;50.874;6.466;2024-01-30T15:47:13;101770.78;;;9.31;100.00
63115;BME280;49208;50.874;6.466;2024-01-30T15:49:38;101781.44;;;9.30;100.00
63115;BME280;49208;50.874;6.466;2024-01-30T15:52:04;101775.28;;;9.26;100.00
63115;BME280;49208;50.874;6.466;2024-01-30T15:54:30;101775.28;;;9.23;100.00
63115;BME280;49208;50.874;6.466;2024-01-30T15:56:55;101772.66;;;9.22;100.00
63115;BME280;49208;50.874;6.466;2024-01-30T15:59:21;101780.63;;;9.19;100.00
63115;BME280;49208;50.874;6.466;2024-01-30T16:01:46;101776.25;;;9.15;100.00
63115;BME280;49208;50.874;6.466;2024-01-30T16:04:15;101794.88;;;9.12;100.00
63115;BME280;49208;50.874;6.466;2024-01-30T16:06:40;101786.03;;;9.09;100.00
63115;BME280;49208;50.874;6.466;2024-01-30T16:09:07;101796.66;;;9.06;100.00
63115;BME280;49208;50.874;6.466;2024-01-30T16:11:33;101800.25;;;9.02;100.00
63115;BME280;49208;50.874;6.466;2024-01-30T16:13:58;101799.41;;;8.97;100.00
63115;BME280;49208;50.874;6.466;2024-01-30T16:16:24;101805.63;;;8.95;100.00
63115;BME280;49208;50.874;6.466;2024-01-30T16:18:49;101811.84;;;8.90;100.00
63115;BME280;49208;50.874;6.466;2024-01-30T16:21:14;101818.06;;;8.85;100.00
63115;BME280;49208;50.874;6.466;2024-01-30T16:23:41;101821.66;;;8.82;100.00
63115;BME280;49208;50.874;6.466;2024-01-30T16:26:07;101811.03;;;8.79;100.00
63115;BME280;49208;50.874;6.466;2024-01-30T16:28:32;101826.94;;;8.82;100.00
63115;BME280;49208;50.874;6.466;2024-01-30T16:31:00;101830.50;;;8.78;100.00
63115;BME280;49208;50.874;6.466;2024-01-30T16:33:27;101824.31;;;8.78;100.00
63115;BME280;49208;50.874;6.466;2024-01-30T16:35:53;101832.28;;;8.73;100.00
63115;BME280;49208;50.874;6.466;2024-01-30T16:38:18;101846.47;;;8.74;100.00
63115;BME280;49208;50.874;6.466;2024-01-30T16:40:44;101846.47;;;8.69;100.00
63115;BME280;49208;50.874;6.466;2024-01-30T16:43:11;101855.34;;;8.66;100.00
63115;BME280;49208;50.874;6.466;2024-01-30T16:45:36;101853.59;;;8.62;100.00
63115;BME280;49208;50.874;6.466;2024-01-30T16:48:02;101856.25;;;8.65;100.00
63115;BME280;49208;50.874;6.466;2024-01-30T16:50:28;101865.13;;;8.61;100.00
63115;BME280;49208;50.874;6.466;2024-01-30T16:52:53;101862.47;;;8.60;100.00
63115;BME280;49208;50.874;6.466;2024-01-30T16:55:18;101869.56;;;8.58;100.00
63115;BME280;49208;50.874;6.466;2024-01-30T16:57:46;101870.44;;;8.54;100.00
63115;BME280;49208;50.874;6.466;2024-01-30T17:00:11;101875.75;;;8.52;100.00
63115;BME280;49208;50.874;6.466;2024-01-30T17:02:37;101867.81;;;8.47;100.00
63115;BME280;49208;50.874;6.466;2024-01-30T17:05:03;101869.59;;;8.44;100.00
63115;BME280;49208;50.874;6.466;2024-01-30T17:07:29;101874.91;;;8.42;100.00
63115;BME280;49208;50.874;6.466;2024-01-30T17:10:00;101882.88;;;8.41;100.00
63115;BME280;49208;50.874;6.466;2024-01-30T17:12:26;101886.38;;;8.38;100.00
63115;BME280;49208;50.874;6.466;2024-01-30T17:14:51;101892.59;;;8.39;100.00
63115;BME280;49208;50.874;6.466;2024-01-30T17:17:16;101887.28;;;8.37;100.00
63115;BME280;49208;50.874;6.466;2024-01-30T17:19:42;101895.25;;;8.39;100.00
63115;BME280;49208;50.874;6.466;2024-01-30T17:22:08;101902.31;;;8.37;100.00
63115;BME280;49208;50.874;6.466;2024-01-30T17:24:33;101898.75;;;8.36;100.00
63115;BME280;49208;50.874;6.466;2024-01-30T17:26:58;101902.31;;;8.35;100.00
63115;BME280;49208;50.874;6.466;2024-01-30T17:29:25;101897.91;;;8.31;100.00
63115;BME280;49208;50.874;6.466;2024-01-30T17:31:50;101902.34;;;8.29;99.89
63115;BME280;49208;50.874;6.466;2024-01-30T17:34:16;101904.09;;;8.25;100.00
63115;BME280;49208;50.874;6.466;2024-01-30T17:36:42;101917.38;;;8.21;100.00
63115;BME280;49208;50.874;6.466;2024-01-30T17:39:08;101917.38;;;8.19;99.83
63115;BME280;49208;50.874;6.466;2024-01-30T17:41:33;101915.63;;;8.15;100.00
63115;BME280;49208;50.874;6.466;2024-01-30T17:43:59;101915.63;;;8.10;100.00
63115;BME280;49208;50.874;6.466;2024-01-30T17:46:24;101922.72;;;8.07;99.30
63115;BME280;49208;50.874;6.466;2024-01-30T17:48:49;101919.19;;;8.03;99.20
63115;BME280;49208;50.874;6.466;2024-01-30T17:51:15;101930.66;;;8.01;98.63
63115;BME280;49208;50.874;6.466;2024-01-30T17:53:40;101937.75;;;7.97;98.90
63115;BME280;49208;50.874;6.466;2024-01-30T17:56:06;101938.63;;;7.96;97.14
63115;BME280;49208;50.874;6.466;2024-01-30T17:58:32;101949.22;;;7.95;97.05
63115;BME280;49208;50.874;6.466;2024-01-30T18:00:58;101957.22;;;7.93;96.62
63115;BME280;49208;50.874;6.466;2024-01-30T18:03:25;101945.69;;;7.93;97.23
63115;BME280;49208;50.874;6.466;2024-01-30T18:05:50;101950.13;;;7.90;96.74
63115;BME280;49208;50.874;6.466;2024-01-30T18:08:16;101949.25;;;7.93;96.70
63115;BME280;49208;50.874;6.466;2024-01-30T18:10:42;101950.13;;;7.92;97.11
63115;BME280;49208;50.874;6.466;2024-01-30T18:13:07;101951.91;;;7.90;96.94
63115;BME280;49208;50.874;6.466;2024-01-30T18:15:34;101955.44;;;7.89;97.42
63115;BME280;49208;50.874;6.466;2024-01-30T18:18:01;101961.63;;;7.85;97.62
63115;BME280;49208;50.874;6.466;2024-01-30T18:20:26;101957.19;;;7.84;97.52
63115;BME280;49208;50.874;6.466;2024-01-30T18:22:52;101966.03;;;7.81;97.76
63115;BME280;49208;50.874;6.466;2024-01-30T18:25:17;101973.13;;;7.81;97.99
63115;BME280;49208;50.874;6.466;2024-01-30T18:27:42;101970.44;;;7.78;98.37
63115;BME280;49208;50.874;6.466;2024-01-30T18:30:09;101963.38;;;7.75;98.30
63115;BME280;49208;50.874;6.466;2024-01-30T18:32:34;101965.16;;;7.78;97.92
63115;BME280;49208;50.874;6.466;2024-01-30T18:35:00;101965.16;;;7.78;97.99
63115;BME280;49208;50.874;6.466;2024-01-30T18:37:26;101965.16;;;7.76;98.08
63115;BME280;49208;50.874;6.466;2024-01-30T18:39:51;101966.03;;;7.75;98.27
63115;BME280;49208;50.874;6.466;2024-01-30T18:42:17;101971.31;;;7.74;97.99
63115;BME280;49208;50.874;6.466;2024-01-30T18:44:43;101986.34;;;7.73;98.15
63115;BME280;49208;50.874;6.466;2024-01-30T18:47:11;101985.47;;;7.73;98.29
63115;BME280;49208;50.874;6.466;2024-01-30T18:49:37;101988.13;;;7.71;98.25
63115;BME280;49208;50.874;6.466;2024-01-30T18:52:03;101999.63;;;7.70;97.62
63115;BME280;49208;50.874;6.466;2024-01-30T18:54:30;101984.56;;;7.67;97.69
63115;BME280;49208;50.874;6.466;2024-01-30T18:56:55;102000.47;;;7.64;97.97
63115;BME280;49208;50.874;6.466;2024-01-30T18:59:20;102003.13;;;7.60;98.59
63115;BME280;49208;50.874;6.466;2024-01-30T19:01:46;102006.66;;;7.56;98.10
63115;BME280;49208;50.874;6.466;2024-01-30T19:04:11;102005.78;;;7.58;96.35
63115;BME280;49208;50.874;6.466;2024-01-30T19:06:37;102013.72;;;7.61;95.91
63115;BME280;49208;50.874;6.466;2024-01-30T19:09:03;102008.41;;;7.61;95.44
63115;BME280;49208;50.874;6.466;2024-01-30T19:11:34;102005.78;;;7.63;96.12
63115;BME280;49208;50.874;6.466;2024-01-30T19:13:59;102012.84;;;7.62;96.98
63115;BME280;49208;50.874;6.466;2024-01-30T19:16:25;102016.38;;;7.63;97.62
63115;BME280;49208;50.874;6.466;2024-01-30T19:18:50;102018.13;;;7.61;98.20
63115;BME280;49208;50.874;6.466;2024-01-30T19:21:16;102000.47;;;7.60;99.34
63115;BME280;49208;50.874;6.466;2024-01-30T19:23:41;102008.44;;;7.58;97.88
63115;BME280;49208;50.874;6.466;2024-01-30T19:26:07;102004.91;;;7.58;99.78
63115;BME280;49208;50.874;6.466;2024-01-30T19:28:33;102008.41;;;7.55;100.00
63115;BME280;49208;50.874;6.466;2024-01-30T19:30:58;102014.56;;;7.51;100.00
63115;BME280;49208;50.874;6.466;2024-01-30T19:33:26;102019.88;;;7.48;100.00
63115;BME280;49208;50.874;6.466;2024-01-30T19:35:52;102020.75;;;7.45;100.00
63115;BME280;49208;50.874;6.466;2024-01-30T19:38:18;102022.53;;;7.43;100.00
63115;BME280;49208;50.874;6.466;2024-01-30T19:40:43;102026.94;;;7.41;100.00
63115;BME280;49208;50.874;6.466;2024-01-30T19:43:09;102034.00;;;7.39;100.00